createdAt,value
2019-02-26T00:01:21.093Z,25.52
2019-02-26T00:03:51.586Z,22.80
2019-02-26T00:06:22.902Z,26.65
2019-02-26T00:08:54.108Z,24.82
2019-02-26T00:11:26.348Z,30.32
2019-02-26T00:13:57.352Z,20.70
2019-02-26T00:16:26.780Z,23.40
2019-02-26T00:19:00.672Z,27.62
2019-02-26T00:21:29.307Z,21.20
2019-02-26T00:23:59.317Z,29.87
2019-02-26T00:26:29.030Z,24.32
2019-02-26T00:28:59.716Z,27.42
2019-02-26T00:31:30.473Z,25.37
2019-02-26T00:34:00.388Z,26.17
2019-02-26T00:36:31.521Z,21.05
2019-02-26T00:39:03.460Z,22.82
2019-02-26T00:41:33.570Z,20.80
2019-02-26T00:44:07.155Z,25.45
2019-02-26T00:46:39.344Z,27.00
2019-02-26T00:49:08.394Z,24.35
2019-02-26T00:51:39.839Z,21.23
2019-02-26T00:54:09.500Z,22.93
2019-02-26T00:56:40.973Z,27.58
2019-02-26T00:59:10.621Z,23.25
2019-02-26T01:01:44.115Z,21.97
2019-02-26T01:04:11.800Z,22.32
2019-02-26T01:06:41.509Z,19.92
2019-02-26T01:09:13.398Z,21.80
2019-02-26T01:11:45.077Z,24.00
2019-02-26T01:14:15.838Z,19.35
2019-02-26T01:16:46.560Z,20.95
2019-02-26T01:19:18.050Z,22.80
2019-02-26T01:21:48.727Z,29.92
2019-02-26T01:24:18.515Z,23.07
2019-02-26T01:26:48.268Z,28.83
2019-02-26T01:29:20.819Z,24.05
2019-02-26T01:31:49.344Z,24.32
2019-02-26T01:34:20.365Z,25.43
2019-02-26T01:36:50.486Z,24.98
2019-02-26T01:39:22.825Z,27.25
2019-02-26T01:41:54.068Z,25.02
2019-02-26T01:44:23.185Z,19.42
2019-02-26T01:46:53.786Z,28.25
2019-02-26T01:49:26.652Z,29.52
2019-02-26T01:51:55.932Z,27.77
2019-02-26T01:54:25.676Z,27.40
2019-02-26T01:56:55.368Z,27.52
2019-02-26T01:59:25.211Z,29.55
2019-02-26T02:01:56.034Z,22.87
2019-02-26T02:04:26.018Z,24.90
2019-02-26T02:06:57.130Z,29.10
2019-02-26T02:09:27.227Z,26.12
2019-02-26T02:11:58.250Z,26.00
2019-02-26T02:14:28.383Z,25.92
2019-02-26T02:16:58.227Z,30.77
2019-02-26T02:19:30.208Z,27.20
2019-02-26T02:21:59.375Z,24.50
2019-02-26T02:24:29.135Z,29.00
2019-02-26T02:27:00.312Z,28.50
2019-02-26T02:29:30.184Z,28.05
2019-02-26T02:32:04.428Z,28.30
2019-02-26T02:34:33.085Z,27.37
2019-02-26T02:37:02.806Z,28.95
2019-02-26T02:39:32.531Z,32.75
2019-02-26T02:42:02.285Z,31.73
2019-02-26T02:44:32.104Z,29.02
2019-02-26T02:47:03.697Z,29.77
2019-02-26T02:49:36.470Z,26.20
2019-02-26T02:52:06.546Z,26.68
2019-02-26T02:54:35.982Z,32.05
2019-02-26T02:57:08.018Z,30.55
2019-02-26T02:59:39.418Z,27.77
2019-02-26T03:02:09.410Z,29.10
2019-02-26T03:04:39.919Z,35.92
2019-02-26T03:07:09.729Z,31.75
2019-02-26T03:09:40.702Z,27.50
2019-02-26T03:12:10.991Z,34.43
2019-02-26T03:14:41.987Z,37.63
2019-02-26T03:17:14.778Z,28.35
2019-02-26T03:19:43.727Z,28.02
2019-02-26T03:22:15.262Z,35.52
2019-02-26T03:24:44.886Z,29.72
2019-02-26T03:27:14.699Z,44.48
2019-02-26T03:29:45.071Z,33.75
2019-02-26T03:32:15.802Z,37.05
2019-02-26T03:34:45.537Z,33.30
2019-02-26T03:37:15.231Z,34.38
2019-02-26T03:39:44.963Z,33.90
2019-02-26T03:42:16.672Z,31.27
2019-02-26T03:44:46.926Z,37.80
2019-02-26T03:47:18.805Z,33.30
2019-02-26T03:49:48.493Z,28.67
2019-02-26T03:52:18.266Z,31.87
2019-02-26T03:54:48.666Z,31.17
2019-02-26T03:57:21.820Z,30.00
2019-02-26T03:59:50.924Z,34.75
2019-02-26T04:02:23.323Z,35.35
2019-02-26T04:04:54.462Z,32.28
2019-02-26T04:07:25.966Z,37.25
2019-02-26T04:09:55.854Z,29.72
2019-02-26T04:12:26.609Z,30.68
2019-02-26T04:14:56.314Z,29.85
2019-02-26T04:17:28.583Z,31.10
2019-02-26T04:19:57.466Z,30.68
2019-02-26T04:22:35.087Z,30.10
2019-02-26T04:25:09.396Z,30.52
2019-02-26T04:27:53.044Z,31.15
2019-02-26T04:30:59.390Z,33.80
2019-02-26T04:34:14.999Z,28.38
2019-02-26T04:37:30.707Z,29.05
2019-02-26T04:41:00.218Z,34.83
2019-02-26T04:44:13.844Z,35.15
2019-02-26T04:47:10.940Z,32.98
2019-02-26T04:49:42.958Z,31.37
2019-02-26T04:52:14.301Z,38.35
2019-02-26T04:54:43.743Z,31.82
2019-02-26T04:57:13.446Z,32.85
2019-02-26T04:59:43.873Z,30.57
2019-02-26T05:02:13.941Z,28.52
2019-02-26T05:04:43.726Z,29.87
2019-02-26T05:07:16.283Z,30.25
2019-02-26T05:09:50.144Z,34.33
2019-02-26T05:12:19.089Z,34.98
2019-02-26T05:14:49.033Z,32.23
2019-02-26T05:17:21.277Z,36.65
2019-02-26T05:19:51.792Z,30.32
2019-02-26T05:22:22.865Z,38.15
2019-02-26T05:24:53.127Z,33.42
2019-02-26T05:27:24.977Z,30.20
2019-02-26T05:29:54.812Z,31.12
2019-02-26T05:32:27.328Z,37.63
2019-02-26T05:34:56.299Z,37.75
2019-02-26T05:37:29.794Z,33.05
2019-02-26T05:40:00.378Z,37.35
2019-02-26T05:42:30.269Z,36.55
2019-02-26T05:45:02.968Z,36.10
2019-02-26T05:47:31.499Z,35.10
2019-02-26T05:50:02.720Z,32.33
2019-02-26T05:52:33.236Z,33.50
2019-02-26T05:55:05.397Z,31.20
2019-02-26T05:57:35.113Z,32.48
2019-02-26T06:00:08.206Z,28.40
2019-02-26T06:02:41.557Z,33.98
2019-02-26T06:05:08.992Z,33.88
2019-02-26T06:07:42.011Z,36.73
2019-02-26T06:10:11.973Z,31.87
2019-02-26T06:12:46.010Z,26.85
2019-02-26T06:15:13.318Z,32.93
2019-02-26T06:17:43.734Z,30.70
2019-02-26T06:20:17.498Z,32.42
2019-02-26T06:22:47.325Z,27.58
2019-02-26T06:25:22.943Z,39.50
2019-02-26T06:27:48.687Z,34.15
2019-02-26T06:30:18.508Z,29.65
2019-02-26T06:32:50.236Z,38.05
2019-02-26T06:35:19.862Z,32.08
2019-02-26T06:37:52.968Z,33.78
2019-02-26T06:40:22.857Z,33.15
2019-02-26T06:42:52.871Z,35.45
2019-02-26T06:45:22.709Z,29.82
2019-02-26T06:47:54.480Z,35.95
2019-02-26T06:50:23.943Z,36.90
2019-02-26T06:52:56.432Z,34.18
2019-02-26T06:55:26.275Z,36.17
2019-02-26T06:58:16.639Z,33.83
2019-02-26T07:00:48.094Z,33.48
2019-02-26T07:03:17.772Z,33.15
2019-02-26T07:05:52.546Z,29.52
2019-02-26T07:08:24.219Z,35.98
2019-02-26T07:10:54.946Z,33.13
2019-02-26T07:13:24.692Z,36.40
2019-02-26T07:15:54.487Z,34.53
2019-02-26T07:18:24.360Z,27.52
2019-02-26T07:20:55.818Z,35.63
2019-02-26T07:23:27.307Z,31.05
2019-02-26T07:25:57.102Z,33.83
2019-02-26T07:28:26.992Z,31.40
2019-02-26T07:30:56.758Z,27.55
2019-02-26T07:33:27.408Z,41.30
2019-02-26T07:35:59.416Z,39.25
2019-02-26T07:38:29.222Z,30.00
2019-02-26T07:41:01.172Z,33.75
2019-02-26T07:43:30.347Z,31.55
2019-02-26T07:46:03.331Z,34.65
2019-02-26T07:48:33.668Z,31.10
2019-02-26T07:51:03.543Z,36.73
2019-02-26T07:53:33.311Z,31.17
2019-02-26T07:56:06.727Z,29.23
2019-02-26T07:58:38.955Z,33.45
2019-02-26T08:01:08.864Z,38.38
2019-02-26T08:03:38.710Z,37.40
2019-02-26T08:06:09.797Z,34.88
2019-02-26T08:08:41.987Z,32.00
2019-02-26T08:11:11.430Z,32.28
2019-02-26T08:13:41.247Z,29.42
2019-02-26T08:16:12.291Z,38.80
2019-02-26T08:18:42.206Z,32.80
2019-02-26T08:21:12.112Z,35.43
2019-02-26T08:23:43.712Z,33.13
2019-02-26T08:26:15.003Z,28.30
2019-02-26T08:28:49.181Z,34.65
2019-02-26T08:31:20.690Z,34.05
2019-02-26T08:33:51.778Z,31.30
2019-02-26T08:36:21.777Z,33.48
2019-02-26T08:38:52.120Z,36.73
2019-02-26T08:41:22.985Z,37.75
2019-02-26T08:43:54.635Z,33.23
2019-02-26T08:46:25.355Z,34.05
2019-02-26T08:48:55.102Z,32.75
2019-02-26T08:51:24.858Z,34.63
2019-02-26T08:53:57.008Z,35.92
2019-02-26T08:56:28.122Z,36.03
2019-02-26T08:58:58.563Z,36.40
2019-02-26T09:01:28.841Z,27.73
2019-02-26T09:04:00.703Z,36.13
2019-02-26T09:06:29.975Z,41.75
2019-02-26T09:09:01.938Z,37.30
2019-02-26T09:11:31.843Z,35.68
2019-02-26T09:14:04.886Z,31.15
2019-02-26T09:16:33.854Z,40.83
2019-02-26T09:19:03.710Z,33.67
2019-02-26T09:21:36.894Z,34.27
2019-02-26T09:24:07.859Z,30.00
2019-02-26T09:26:37.722Z,40.52
2019-02-26T09:29:12.135Z,34.67
2019-02-26T09:31:41.452Z,37.28
2019-02-26T09:34:11.232Z,32.23
2019-02-26T09:36:41.049Z,35.13
2019-02-26T09:39:13.107Z,30.70
2019-02-26T09:41:43.343Z,30.17
2019-02-26T09:44:13.617Z,34.05
2019-02-26T09:46:43.906Z,34.75
2019-02-26T09:49:14.091Z,38.33
2019-02-26T09:51:43.950Z,36.33
2019-02-26T09:54:15.269Z,30.48
2019-02-26T09:56:47.891Z,36.40
2019-02-26T09:59:17.686Z,36.33
2019-02-26T10:01:47.606Z,34.38
2019-02-26T10:04:19.191Z,36.25
2019-02-26T10:06:48.813Z,36.50
2019-02-26T10:09:20.602Z,36.30
2019-02-26T10:11:51.715Z,30.70
2019-02-26T10:14:21.682Z,34.65
2019-02-26T10:16:52.410Z,39.42
2019-02-26T10:19:22.846Z,38.25
2019-02-26T10:21:52.723Z,31.12
2019-02-26T10:24:27.097Z,42.15
2019-02-26T10:26:54.104Z,39.00
2019-02-26T10:29:23.818Z,36.77
2019-02-26T10:31:56.222Z,36.30
2019-02-26T10:34:29.438Z,30.85
2019-02-26T10:36:56.479Z,36.05
2019-02-26T10:39:28.215Z,35.00
2019-02-26T10:42:01.897Z,36.38
2019-02-26T10:44:29.207Z,35.95
2019-02-26T10:47:00.748Z,38.73
2019-02-26T10:49:30.444Z,33.45
2019-02-26T10:52:00.310Z,30.62
2019-02-26T10:54:39.490Z,34.58
2019-02-26T10:57:07.606Z,37.67
2019-02-26T10:59:35.870Z,27.10
2019-02-26T11:02:05.561Z,30.05
2019-02-26T11:04:38.068Z,28.50
2019-02-26T11:07:08.837Z,39.05
2019-02-26T11:09:38.172Z,30.45
2019-02-26T11:12:08.571Z,31.40
2019-02-26T11:14:39.572Z,28.70
2019-02-26T11:17:10.078Z,37.03
2019-02-26T11:19:41.791Z,29.70
2019-02-26T11:22:11.219Z,30.82
2019-02-26T11:24:40.939Z,29.67
2019-02-26T11:27:10.683Z,29.45
2019-02-26T11:29:40.843Z,33.80
2019-02-26T11:32:12.958Z,31.00
2019-02-26T11:34:42.043Z,28.55
2019-02-26T11:37:11.803Z,27.17
2019-02-26T11:39:41.581Z,30.80
2019-02-26T11:42:11.312Z,31.70
2019-02-26T11:44:43.382Z,29.25
2019-02-26T11:47:13.689Z,32.80
2019-02-26T11:49:46.694Z,33.50
2019-02-26T11:52:19.540Z,32.75
2019-02-26T11:54:47.278Z,29.52
2019-02-26T11:57:17.775Z,29.48
2019-02-26T11:59:47.733Z,26.95
2019-02-26T12:02:25.405Z,26.02
2019-02-26T12:04:48.882Z,26.07
2019-02-26T12:07:18.726Z,26.75
2019-02-26T12:09:48.512Z,32.03
2019-02-26T12:12:18.247Z,24.07
2019-02-26T12:14:48.594Z,23.98
2019-02-26T12:17:18.426Z,28.07
2019-02-26T12:19:48.628Z,25.97
2019-02-26T12:22:20.432Z,25.23
2019-02-26T12:24:55.717Z,21.80
2019-02-26T12:27:23.731Z,28.45
2019-02-26T12:29:54.509Z,24.35
2019-02-26T12:32:26.873Z,24.40
2019-02-26T12:34:56.021Z,24.30
2019-02-26T12:37:25.869Z,26.90
2019-02-26T12:39:57.917Z,24.57
2019-02-26T12:42:34.190Z,28.20
2019-02-26T12:45:06.774Z,24.50
2019-02-26T12:47:35.446Z,23.77
2019-02-26T12:50:08.627Z,26.15
2019-02-26T12:52:37.247Z,27.65
2019-02-26T12:55:10.549Z,27.60
2019-02-26T12:57:40.588Z,24.60
2019-02-26T13:00:16.586Z,21.50
2019-02-26T13:02:49.466Z,25.72
2019-02-26T13:05:19.662Z,30.23
2019-02-26T13:07:50.194Z,19.40
2019-02-26T13:10:21.079Z,20.70
2019-02-26T13:12:55.142Z,17.27
2019-02-26T13:15:22.322Z,26.68
2019-02-26T13:20:26.234Z,23.55
2019-02-26T13:23:00.598Z,20.32
2019-02-26T13:25:27.508Z,23.47
2019-02-26T13:27:57.372Z,24.37
2019-02-26T13:30:27.254Z,23.52
2019-02-26T13:33:00.027Z,21.85
2019-02-26T13:35:28.801Z,24.20
2019-02-26T13:37:58.950Z,20.85
2019-02-26T13:40:28.796Z,17.40
2019-02-26T13:45:30.159Z,20.75
2019-02-26T13:48:01.401Z,16.85
2019-02-26T13:50:32.140Z,19.50
2019-02-26T13:53:01.951Z,20.15
2019-02-26T13:55:31.662Z,18.85
2019-02-26T13:58:04.757Z,17.23
2019-02-26T14:00:32.900Z,16.52
2019-02-26T14:03:04.091Z,17.25
2019-02-26T14:05:38.381Z,16.10
2019-02-26T14:08:08.060Z,20.50
2019-02-26T14:10:37.979Z,20.20
2019-02-26T14:13:07.793Z,19.05
2019-02-26T14:15:37.971Z,15.85
2019-02-26T14:18:07.763Z,17.73
2019-02-26T14:20:37.466Z,21.75
2019-02-26T14:23:07.269Z,15.88
2019-02-26T14:25:37.034Z,17.00
2019-02-26T14:28:06.891Z,17.90
2019-02-26T14:30:36.658Z,18.07
2019-02-26T14:33:06.425Z,21.23
2019-02-26T14:35:36.212Z,19.40
2019-02-26T14:38:08.759Z,15.53
2019-02-26T14:40:38.511Z,20.05
2019-02-26T14:43:09.374Z,17.57
2019-02-26T14:45:39.115Z,17.40
2019-02-26T14:48:08.872Z,17.17
2019-02-26T14:50:38.648Z,19.95
2019-02-26T14:53:08.423Z,18.70
2019-02-26T14:55:38.158Z,15.90
2019-02-26T14:58:07.889Z,19.73
2019-02-26T15:00:37.782Z,17.02
2019-02-26T15:03:07.586Z,18.35
2019-02-26T15:05:37.284Z,17.77
2019-02-26T15:08:07.171Z,17.25
2019-02-26T15:10:36.935Z,14.23
2019-02-26T15:13:06.790Z,19.57
2019-02-26T15:15:39.216Z,19.07
2019-02-26T15:18:09.035Z,16.82
2019-02-26T15:20:38.795Z,16.45
2019-02-26T15:23:08.528Z,16.87
2019-02-26T15:25:39.339Z,21.33
2019-02-26T15:28:10.434Z,17.37
2019-02-26T15:30:40.168Z,17.40
2019-02-26T15:33:11.302Z,15.48
2019-02-26T15:35:41.372Z,17.32
2019-02-26T15:38:11.139Z,18.55
2019-02-26T15:40:40.986Z,19.87
2019-02-26T15:43:10.764Z,21.95
2019-02-26T15:45:40.525Z,20.72
2019-02-26T15:48:10.325Z,20.92
2019-02-26T15:50:40.383Z,22.98
2019-02-26T15:53:10.331Z,20.72
2019-02-26T15:55:40.040Z,21.57
2019-02-26T15:58:11.570Z,23.18
2019-02-26T16:00:41.614Z,32.42
2019-02-26T16:03:12.924Z,25.82
2019-02-26T16:05:42.764Z,27.32
2019-02-26T16:08:12.917Z,28.85
2019-02-26T16:10:42.729Z,24.70
2019-02-26T16:13:12.515Z,28.55
2019-02-26T16:15:42.266Z,32.48
2019-02-26T16:18:12.193Z,28.45
2019-02-26T16:20:41.886Z,34.18
2019-02-26T16:23:13.399Z,26.27
2019-02-26T16:25:43.164Z,33.85
2019-02-26T16:28:12.951Z,29.00
2019-02-26T16:30:42.643Z,32.15
2019-02-26T16:33:13.656Z,27.07
2019-02-26T16:35:43.845Z,35.50
2019-02-26T16:38:14.124Z,32.73
2019-02-26T16:40:45.004Z,37.13
2019-02-26T16:43:16.906Z,32.93
2019-02-26T16:45:46.188Z,28.60
2019-02-26T16:48:21.445Z,31.62
2019-02-26T16:50:52.403Z,32.75
2019-02-26T16:53:22.208Z,37.17
2019-02-26T16:55:51.914Z,33.10
2019-02-26T16:58:27.424Z,40.58
2019-02-26T17:00:57.401Z,36.13
2019-02-26T17:03:27.785Z,37.65
2019-02-26T17:05:57.589Z,40.85
2019-02-26T17:08:28.734Z,34.43
2019-02-26T17:10:58.518Z,40.92
2019-02-26T17:13:28.338Z,49.38
2019-02-26T17:15:59.643Z,40.40
2019-02-26T17:18:29.731Z,41.37
2019-02-26T17:20:59.568Z,31.37
2019-02-26T17:23:31.718Z,40.45
2019-02-26T17:26:01.832Z,36.75
2019-02-26T17:28:33.430Z,39.55
2019-02-26T17:31:03.170Z,47.53
2019-02-26T17:33:33.117Z,40.52
2019-02-26T17:36:02.853Z,41.15
2019-02-26T17:38:32.908Z,42.90
2019-02-26T17:41:02.866Z,38.05
2019-02-26T17:43:32.745Z,44.77
2019-02-26T17:46:07.864Z,43.40
2019-02-26T17:48:43.490Z,44.65
2019-02-26T17:51:08.538Z,43.45
2019-02-26T17:53:39.286Z,45.20
2019-02-26T17:56:09.190Z,50.63
2019-02-26T17:58:39.092Z,43.08
2019-02-26T18:01:08.843Z,47.35
2019-02-26T18:03:38.540Z,61.30
2019-02-26T18:06:08.419Z,51.02
2019-02-26T18:08:38.293Z,48.15
2019-02-26T18:11:08.144Z,48.28
2019-02-26T18:13:37.891Z,54.95
2019-02-26T18:16:09.353Z,46.95
2019-02-26T18:18:39.267Z,50.90
2019-02-26T18:21:09.064Z,53.68
2019-02-26T18:23:40.063Z,45.50
2019-02-26T18:26:09.938Z,51.15
2019-02-26T18:28:39.788Z,57.83
2019-02-26T18:31:09.662Z,53.92
2019-02-26T18:33:39.705Z,60.23
2019-02-26T18:36:09.502Z,56.95
2019-02-26T18:38:39.275Z,51.10
2019-02-26T18:41:09.299Z,57.43
2019-02-26T18:43:39.024Z,51.73
2019-02-26T18:46:08.771Z,57.48
2019-02-26T18:48:38.558Z,52.75
2019-02-26T18:51:08.425Z,61.20
2019-02-26T18:53:38.222Z,57.58
2019-02-26T18:56:08.040Z,51.65
2019-02-26T18:58:37.775Z,51.33
2019-02-26T19:01:09.967Z,55.90
2019-02-26T19:03:41.600Z,41.68
2019-02-26T19:06:11.336Z,54.98
2019-02-26T19:08:41.075Z,57.60
2019-02-26T19:11:16.512Z,52.25
2019-02-26T19:13:42.389Z,49.98
2019-02-26T19:16:12.342Z,62.10
2019-02-26T19:18:42.159Z,57.58
2019-02-26T19:21:11.997Z,53.08
2019-02-26T19:23:42.052Z,60.48
2019-02-26T19:26:13.722Z,58.95
2019-02-26T19:28:43.271Z,65.00
2019-02-26T19:31:13.171Z,53.73
2019-02-26T19:33:42.971Z,52.93
2019-02-26T19:36:12.988Z,52.08
2019-02-26T19:38:43.571Z,55.67
2019-02-26T19:41:14.990Z,56.45
2019-02-26T19:43:47.879Z,60.40
2019-02-26T19:46:17.883Z,62.40
2019-02-26T19:48:47.911Z,61.18
2019-02-26T19:51:21.894Z,73.17
2019-02-26T19:53:51.381Z,57.65
2019-02-26T19:56:23.729Z,62.35
2019-02-26T19:58:52.791Z,69.12
2019-02-26T20:01:25.495Z,69.27
2019-02-26T20:03:54.176Z,71.47
2019-02-26T20:06:26.719Z,64.55
2019-02-26T20:08:55.676Z,64.40
2019-02-26T20:11:25.532Z,63.05
2019-02-26T20:14:04.547Z,64.35
2019-02-26T20:16:28.805Z,67.22
2019-02-26T20:18:59.191Z,76.85
2019-02-26T20:21:29.620Z,70.52
2019-02-26T20:23:59.328Z,66.30
2019-02-26T20:26:29.217Z,131.15
2019-02-26T20:28:59.018Z,109.92
2019-02-26T20:31:28.975Z,178.45
2019-02-26T20:33:58.805Z,124.00
2019-02-26T20:36:28.674Z,121.70
2019-02-26T20:38:58.587Z,92.53
2019-02-26T20:41:29.531Z,93.65
2019-02-26T20:43:59.259Z,86.67
2019-02-26T20:46:29.046Z,95.25
2019-02-26T20:48:58.923Z,77.87
2019-02-26T20:51:28.769Z,96.87
2019-02-26T20:53:58.681Z,87.27
2019-02-26T20:56:28.570Z,89.85
2019-02-26T20:58:59.859Z,87.25
2019-02-26T21:01:32.256Z,91.57
2019-02-26T21:04:02.858Z,84.67
2019-02-26T21:06:40.329Z,89.05
2019-02-26T21:09:14.040Z,75.25
2019-02-26T21:11:44.028Z,88.17
2019-02-26T21:14:13.738Z,92.33
2019-02-26T21:16:43.809Z,99.30
2019-02-26T21:19:17.186Z,95.62
2019-02-26T21:21:49.047Z,94.37
2019-02-26T21:24:18.518Z,97.90
2019-02-26T21:26:48.317Z,91.35
2019-02-26T21:29:18.114Z,96.05
2019-02-26T21:31:49.753Z,104.40
2019-02-26T21:34:19.308Z,99.22
2019-02-26T21:36:49.059Z,88.95
2019-02-26T21:39:18.886Z,95.47
2019-02-26T21:41:48.755Z,92.12
2019-02-26T21:44:18.478Z,104.40
2019-02-26T21:46:53.601Z,110.50
2019-02-26T21:49:22.646Z,96.87
2019-02-26T21:51:52.517Z,93.17
2019-02-26T21:54:25.250Z,93.22
2019-02-26T21:56:57.499Z,88.70
2019-02-26T21:59:27.278Z,109.70
2019-02-26T22:01:57.062Z,98.07
2019-02-26T22:04:26.742Z,107.32
2019-02-26T22:06:56.506Z,109.87
2019-02-26T22:09:29.948Z,103.78
2019-02-26T22:11:57.678Z,107.43
2019-02-26T22:14:27.429Z,126.00
2019-02-26T22:16:57.243Z,110.12
2019-02-26T22:19:26.928Z,110.88
2019-02-26T22:21:56.705Z,87.15
2019-02-26T22:24:27.557Z,101.90
2019-02-26T22:27:00.181Z,105.25
2019-02-26T22:29:29.949Z,95.42
2019-02-26T22:32:02.406Z,108.63
2019-02-26T22:34:31.173Z,105.45
2019-02-26T22:37:00.941Z,97.62
2019-02-26T22:39:33.358Z,110.12
2019-02-26T22:42:03.291Z,98.22
2019-02-26T22:44:33.058Z,112.37
2019-02-26T22:47:04.684Z,100.33
2019-02-26T22:49:34.234Z,101.87
2019-02-26T22:52:04.542Z,102.60
2019-02-26T22:54:34.999Z,111.52
2019-02-26T22:57:04.935Z,108.22
2019-02-26T22:59:34.647Z,104.45
2019-02-26T23:02:08.563Z,99.85
2019-02-26T23:04:35.839Z,121.02
2019-02-26T23:07:05.590Z,113.17
2019-02-26T23:09:35.736Z,105.95
2019-02-26T23:12:05.711Z,116.55
2019-02-26T23:14:35.886Z,112.17
2019-02-26T23:17:07.134Z,103.27
2019-02-26T23:19:37.431Z,112.17
2019-02-26T23:22:08.831Z,102.20
2019-02-26T23:24:38.595Z,122.65
2019-02-26T23:27:14.894Z,114.30
2019-02-26T23:29:44.000Z,138.03
2019-02-26T23:32:14.160Z,136.07
2019-02-26T23:34:43.909Z,125.12
2019-02-26T23:37:13.804Z,130.32
2019-02-26T23:39:43.536Z,122.47
2019-02-26T23:42:13.348Z,130.82
2019-02-26T23:44:43.094Z,134.30
2019-02-26T23:47:12.820Z,146.05
2019-02-26T23:49:44.856Z,136.40
2019-02-26T23:52:16.358Z,118.42
2019-02-26T23:54:46.164Z,118.82
2019-02-26T23:57:15.862Z,132.65
2019-02-26T23:59:45.648Z,143.05
